sensor_id;sensor_type;location;lat;lon;timestamp;P1;durP1;ratioP1;P2;durP2;ratioP2
17832;SDS011;9041;49.718;21.798;2023-08-21T00:00:14;18.92;;;12.77;;
17832;SDS011;9041;49.718;21.798;2023-08-21T00:02:44;19.52;;;13.40;;
17832;SDS011;9041;49.718;21.798;2023-08-21T00:05:11;20.52;;;13.55;;
17832;SDS011;9041;49.718;21.798;2023-08-21T00:07:37;21.52;;;12.63;;
17832;SDS011;9041;49.718;21.798;2023-08-21T00:10:04;19.38;;;12.85;;
17832;SDS011;9041;49.718;21.798;2023-08-21T00:12:32;19.48;;;13.38;;
17832;SDS011;9041;49.718;21.798;2023-08-21T00:15:01;18.23;;;12.15;;
17832;SDS011;9041;49.718;21.798;2023-08-21T00:17:29;17.98;;;12.55;;
17832;SDS011;9041;49.718;21.798;2023-08-21T00:19:56;19.58;;;12.88;;
17832;SDS011;9041;49.718;21.798;2023-08-21T00:22:23;17.70;;;12.00;;
17832;SDS011;9041;49.718;21.798;2023-08-21T00:24:50;18.25;;;11.73;;
17832;SDS011;9041;49.718;21.798;2023-08-21T00:27:16;18.23;;;13.10;;
17832;SDS011;9041;49.718;21.798;2023-08-21T00:29:43;20.90;;;12.48;;
17832;SDS011;9041;49.718;21.798;2023-08-21T00:32:10;19.10;;;12.63;;
17832;SDS011;9041;49.718;21.798;2023-08-21T00:34:39;19.98;;;13.20;;
17832;SDS011;9041;49.718;21.798;2023-08-21T00:37:06;24.42;;;12.68;;
17832;SDS011;9041;49.718;21.798;2023-08-21T00:39:32;17.67;;;12.25;;
17832;SDS011;9041;49.718;21.798;2023-08-21T00:41:59;18.55;;;12.73;;
17832;SDS011;9041;49.718;21.798;2023-08-21T00:44:25;20.80;;;12.13;;
17832;SDS011;9041;49.718;21.798;2023-08-21T00:46:52;20.95;;;12.90;;
17832;SDS011;9041;49.718;21.798;2023-08-21T00:49:19;21.63;;;12.68;;
17832;SDS011;9041;49.718;21.798;2023-08-21T00:51:48;19.67;;;12.88;;
17832;SDS011;9041;49.718;21.798;2023-08-21T00:54:17;20.52;;;12.55;;
17832;SDS011;9041;49.718;21.798;2023-08-21T00:56:45;20.13;;;12.38;;
17832;SDS011;9041;49.718;21.798;2023-08-21T00:59:12;15.57;;;11.50;;
17832;SDS011;9041;49.718;21.798;2023-08-21T01:01:39;24.67;;;13.48;;
17832;SDS011;9041;49.718;21.798;2023-08-21T01:04:06;19.25;;;13.20;;
17832;SDS011;9041;49.718;21.798;2023-08-21T01:06:34;15.32;;;10.63;;
17832;SDS011;9041;49.718;21.798;2023-08-21T01:09:04;18.70;;;11.63;;
17832;SDS011;9041;49.718;21.798;2023-08-21T01:11:35;14.38;;;9.98;;
17832;SDS011;9041;49.718;21.798;2023-08-21T01:14:06;16.23;;;11.23;;
17832;SDS011;9041;49.718;21.798;2023-08-21T01:16:37;20.30;;;12.68;;
17832;SDS011;9041;49.718;21.798;2023-08-21T01:19:04;18.17;;;12.25;;
17832;SDS011;9041;49.718;21.798;2023-08-21T01:21:35;17.88;;;11.95;;
17832;SDS011;9041;49.718;21.798;2023-08-21T01:24:04;20.73;;;13.20;;
17832;SDS011;9041;49.718;21.798;2023-08-21T01:26:30;16.75;;;10.30;;
17832;SDS011;9041;49.718;21.798;2023-08-21T01:28:57;20.63;;;11.75;;
17832;SDS011;9041;49.718;21.798;2023-08-21T01:31:24;19.40;;;12.63;;
17832;SDS011;9041;49.718;21.798;2023-08-21T01:33:53;22.17;;;12.85;;
17832;SDS011;9041;49.718;21.798;2023-08-21T01:36:21;23.60;;;13.30;;
17832;SDS011;9041;49.718;21.798;2023-08-21T01:38:49;23.15;;;12.48;;
17832;SDS011;9041;49.718;21.798;2023-08-21T01:41:17;16.50;;;12.20;;
17832;SDS011;9041;49.718;21.798;2023-08-21T01:43:44;17.50;;;11.55;;
17832;SDS011;9041;49.718;21.798;2023-08-21T01:46:12;21.70;;;12.55;;
17832;SDS011;9041;49.718;21.798;2023-08-21T01:48:38;21.13;;;14.05;;
17832;SDS011;9041;49.718;21.798;2023-08-21T01:51:05;18.95;;;13.55;;
17832;SDS011;9041;49.718;21.798;2023-08-21T01:53:32;24.52;;;13.75;;
17832;SDS011;9041;49.718;21.798;2023-08-21T01:55:58;21.15;;;13.80;;
17832;SDS011;9041;49.718;21.798;2023-08-21T01:58:26;23.30;;;14.43;;
17832;SDS011;9041;49.718;21.798;2023-08-21T02:00:53;23.02;;;13.07;;
17832;SDS011;9041;49.718;21.798;2023-08-21T02:03:19;19.55;;;12.88;;
17832;SDS011;9041;49.718;21.798;2023-08-21T02:05:46;26.45;;;14.35;;
17832;SDS011;9041;49.718;21.798;2023-08-21T02:08:13;20.83;;;13.85;;
17832;SDS011;9041;49.718;21.798;2023-08-21T02:10:47;26.05;;;13.70;;
17832;SDS011;9041;49.718;21.798;2023-08-21T02:13:15;26.17;;;14.88;;
17832;SDS011;9041;49.718;21.798;2023-08-21T02:15:43;23.88;;;13.23;;
17832;SDS011;9041;49.718;21.798;2023-08-21T02:18:09;20.80;;;13.05;;
17832;SDS011;9041;49.718;21.798;2023-08-21T02:20:36;23.15;;;13.68;;
17832;SDS011;9041;49.718;21.798;2023-08-21T02:23:03;23.65;;;14.43;;
17832;SDS011;9041;49.718;21.798;2023-08-21T02:25:31;29.45;;;16.40;;
17832;SDS011;9041;49.718;21.798;2023-08-21T02:27:58;29.98;;;16.48;;
17832;SDS011;9041;49.718;21.798;2023-08-21T02:30:24;31.90;;;16.80;;
17832;SDS011;9041;49.718;21.798;2023-08-21T02:32:53;25.88;;;15.30;;
17832;SDS011;9041;49.718;21.798;2023-08-21T02:35:20;36.47;;;14.65;;
17832;SDS011;9041;49.718;21.798;2023-08-21T02:37:47;23.92;;;13.88;;
17832;SDS011;9041;49.718;21.798;2023-08-21T02:40:13;21.85;;;13.05;;
17832;SDS011;9041;49.718;21.798;2023-08-21T02:42:40;26.88;;;15.00;;
17832;SDS011;9041;49.718;21.798;2023-08-21T02:45:07;32.05;;;16.80;;
17832;SDS011;9041;49.718;21.798;2023-08-21T02:47:35;28.80;;;15.43;;
17832;SDS011;9041;49.718;21.798;2023-08-21T02:50:04;26.90;;;16.33;;
17832;SDS011;9041;49.718;21.798;2023-08-21T02:52:31;27.80;;;15.38;;
17832;SDS011;9041;49.718;21.798;2023-08-21T02:54:58;24.00;;;14.75;;
17832;SDS011;9041;49.718;21.798;2023-08-21T02:57:25;27.73;;;15.20;;
17832;SDS011;9041;49.718;21.798;2023-08-21T02:59:52;22.25;;;13.10;;
17832;SDS011;9041;49.718;21.798;2023-08-21T03:02:18;26.15;;;15.55;;
17832;SDS011;9041;49.718;21.798;2023-08-21T03:04:46;28.80;;;15.95;;
17832;SDS011;9041;49.718;21.798;2023-08-21T03:07:14;25.98;;;15.07;;
17832;SDS011;9041;49.718;21.798;2023-08-21T03:09:40;40.08;;;17.40;;
17832;SDS011;9041;49.718;21.798;2023-08-21T03:12:07;36.38;;;17.58;;
17832;SDS011;9041;49.718;21.798;2023-08-21T03:14:34;31.75;;;16.50;;
17832;SDS011;9041;49.718;21.798;2023-08-21T03:17:01;35.80;;;17.85;;
17832;SDS011;9041;49.718;21.798;2023-08-21T03:19:27;29.73;;;16.13;;
17832;SDS011;9041;49.718;21.798;2023-08-21T03:21:54;30.55;;;16.92;;
17832;SDS011;9041;49.718;21.798;2023-08-21T03:24:22;39.80;;;15.57;;
17832;SDS011;9041;49.718;21.798;2023-08-21T03:26:49;33.63;;;16.38;;
17832;SDS011;9041;49.718;21.798;2023-08-21T03:29:15;39.15;;;16.90;;
17832;SDS011;9041;49.718;21.798;2023-08-21T03:31:42;48.20;;;17.48;;
17832;SDS011;9041;49.718;21.798;2023-08-21T03:34:12;40.47;;;16.95;;
17832;SDS011;9041;49.718;21.798;2023-08-21T03:36:39;50.65;;;18.42;;
17832;SDS011;9041;49.718;21.798;2023-08-21T03:39:06;50.42;;;17.85;;
17832;SDS011;9041;49.718;21.798;2023-08-21T03:41:34;43.63;;;19.02;;
17832;SDS011;9041;49.718;21.798;2023-08-21T03:44:00;34.63;;;17.75;;
17832;SDS011;9041;49.718;21.798;2023-08-21T03:46:27;39.20;;;17.90;;
17832;SDS011;9041;49.718;21.798;2023-08-21T03:48:58;30.90;;;17.42;;
17832;SDS011;9041;49.718;21.798;2023-08-21T03:51:24;32.40;;;17.13;;
17832;SDS011;9041;49.718;21.798;2023-08-21T03:53:51;35.30;;;17.42;;
17832;SDS011;9041;49.718;21.798;2023-08-21T03:56:18;30.98;;;17.35;;
17832;SDS011;9041;49.718;21.798;2023-08-21T03:58:46;29.30;;;17.10;;
17832;SDS011;9041;49.718;21.798;2023-08-21T04:01:13;30.70;;;17.58;;
17832;SDS011;9041;49.718;21.798;2023-08-21T04:03:40;29.98;;;17.02;;
17832;SDS011;9041;49.718;21.798;2023-08-21T04:06:07;58.40;;;20.08;;
17832;SDS011;9041;49.718;21.798;2023-08-21T04:08:34;49.45;;;17.95;;
17832;SDS011;9041;49.718;21.798;2023-08-21T04:11:01;42.13;;;17.98;;
17832;SDS011;9041;49.718;21.798;2023-08-21T04:13:27;76.95;;;18.27;;
17832;SDS011;9041;49.718;21.798;2023-08-21T04:15:56;59.60;;;18.95;;
17832;SDS011;9041;49.718;21.798;2023-08-21T04:18:22;30.67;;;17.17;;
17832;SDS011;9041;49.718;21.798;2023-08-21T04:20:49;56.53;;;18.25;;
17832;SDS011;9041;49.718;21.798;2023-08-21T04:23:16;38.72;;;18.40;;
17832;SDS011;9041;49.718;21.798;2023-08-21T04:25:42;35.10;;;18.13;;
17832;SDS011;9041;49.718;21.798;2023-08-21T04:28:09;46.80;;;17.88;;
17832;SDS011;9041;49.718;21.798;2023-08-21T04:30:36;54.45;;;17.58;;
17832;SDS011;9041;49.718;21.798;2023-08-21T04:33:04;44.97;;;18.05;;
17832;SDS011;9041;49.718;21.798;2023-08-21T04:35:35;42.47;;;17.98;;
17832;SDS011;9041;49.718;21.798;2023-08-21T04:38:02;41.83;;;17.25;;
17832;SDS011;9041;49.718;21.798;2023-08-21T04:40:29;40.03;;;18.73;;
17832;SDS011;9041;49.718;21.798;2023-08-21T04:42:56;39.92;;;18.88;;
17832;SDS011;9041;49.718;21.798;2023-08-21T04:45:22;35.95;;;17.33;;
17832;SDS011;9041;49.718;21.798;2023-08-21T04:47:49;54.25;;;18.27;;
17832;SDS011;9041;49.718;21.798;2023-08-21T04:50:17;54.25;;;17.13;;
17832;SDS011;9041;49.718;21.798;2023-08-21T04:52:44;74.15;;;17.52;;
17832;SDS011;9041;49.718;21.798;2023-08-21T04:55:10;29.90;;;16.13;;
17832;SDS011;9041;49.718;21.798;2023-08-21T04:57:37;29.58;;;16.52;;
17832;SDS011;9041;49.718;21.798;2023-08-21T05:00:04;38.50;;;16.88;;
17832;SDS011;9041;49.718;21.798;2023-08-21T05:02:34;37.17;;;17.88;;
17832;SDS011;9041;49.718;21.798;2023-08-21T05:05:01;27.85;;;16.67;;
17832;SDS011;9041;49.718;21.798;2023-08-21T05:07:29;46.30;;;17.98;;
17832;SDS011;9041;49.718;21.798;2023-08-21T05:09:58;46.35;;;17.25;;
17832;SDS011;9041;49.718;21.798;2023-08-21T05:12:25;28.00;;;16.80;;
17832;SDS011;9041;49.718;21.798;2023-08-21T05:14:52;27.10;;;17.40;;
17832;SDS011;9041;49.718;21.798;2023-08-21T05:17:19;26.83;;;17.90;;
17832;SDS011;9041;49.718;21.798;2023-08-21T05:19:45;24.52;;;16.55;;
17832;SDS011;9041;49.718;21.798;2023-08-21T05:22:12;32.20;;;17.38;;
17832;SDS011;9041;49.718;21.798;2023-08-21T05:24:40;28.80;;;16.30;;
17832;SDS011;9041;49.718;21.798;2023-08-21T05:27:06;29.27;;;17.27;;
17832;SDS011;9041;49.718;21.798;2023-08-21T05:29:33;27.50;;;17.52;;
17832;SDS011;9041;49.718;21.798;2023-08-21T05:32:00;30.48;;;18.40;;
17832;SDS011;9041;49.718;21.798;2023-08-21T05:34:26;29.23;;;18.40;;
17832;SDS011;9041;49.718;21.798;2023-08-21T05:36:59;41.63;;;20.50;;
17832;SDS011;9041;49.718;21.798;2023-08-21T05:39:25;31.98;;;19.80;;
17832;SDS011;9041;49.718;21.798;2023-08-21T05:41:53;30.02;;;19.88;;
17832;SDS011;9041;49.718;21.798;2023-08-21T05:44:20;29.85;;;20.00;;
17832;SDS011;9041;49.718;21.798;2023-08-21T05:46:47;35.30;;;20.52;;
17832;SDS011;9041;49.718;21.798;2023-08-21T05:49:13;30.70;;;19.80;;
17832;SDS011;9041;49.718;21.798;2023-08-21T05:51:40;32.53;;;20.77;;
17832;SDS011;9041;49.718;21.798;2023-08-21T05:54:06;30.20;;;19.00;;
17832;SDS011;9041;49.718;21.798;2023-08-21T05:56:33;32.70;;;20.77;;
17832;SDS011;9041;49.718;21.798;2023-08-21T05:59:01;27.80;;;19.17;;
17832;SDS011;9041;49.718;21.798;2023-08-21T06:01:28;30.98;;;20.50;;
17832;SDS011;9041;49.718;21.798;2023-08-21T06:03:54;28.88;;;18.73;;
17832;SDS011;9041;49.718;21.798;2023-08-21T06:06:23;26.33;;;18.08;;
17832;SDS011;9041;49.718;21.798;2023-08-21T06:08:50;27.73;;;17.17;;
17832;SDS011;9041;49.718;21.798;2023-08-21T06:11:17;27.90;;;18.17;;
17832;SDS011;9041;49.718;21.798;2023-08-21T06:13:44;25.27;;;17.27;;
17832;SDS011;9041;49.718;21.798;2023-08-21T06:16:11;30.42;;;17.38;;
17832;SDS011;9041;49.718;21.798;2023-08-21T06:18:38;30.30;;;17.55;;
17832;SDS011;9041;49.718;21.798;2023-08-21T06:21:04;25.73;;;16.65;;
17832;SDS011;9041;49.718;21.798;2023-08-21T06:23:31;24.55;;;16.02;;
17832;SDS011;9041;49.718;21.798;2023-08-21T06:25:58;24.25;;;15.80;;
17832;SDS011;9041;49.718;21.798;2023-08-21T06:28:24;27.48;;;15.95;;
17832;SDS011;9041;49.718;21.798;2023-08-21T06:30:55;22.13;;;15.15;;
17832;SDS011;9041;49.718;21.798;2023-08-21T06:33:23;23.80;;;15.57;;
17832;SDS011;9041;49.718;21.798;2023-08-21T06:35:50;27.23;;;16.65;;
17832;SDS011;9041;49.718;21.798;2023-08-21T06:38:19;21.75;;;15.45;;
17832;SDS011;9041;49.718;21.798;2023-08-21T06:40:46;21.65;;;15.23;;
17832;SDS011;9041;49.718;21.798;2023-08-21T06:43:16;27.70;;;15.35;;
17832;SDS011;9041;49.718;21.798;2023-08-21T06:45:46;28.98;;;15.02;;
17832;SDS011;9041;49.718;21.798;2023-08-21T06:48:13;21.63;;;15.10;;
17832;SDS011;9041;49.718;21.798;2023-08-21T06:50:44;29.85;;;15.10;;
17832;SDS011;9041;49.718;21.798;2023-08-21T06:53:11;30.08;;;14.05;;
17832;SDS011;9041;49.718;21.798;2023-08-21T06:55:38;37.70;;;14.85;;
17832;SDS011;9041;49.718;21.798;2023-08-21T06:58:04;24.05;;;14.90;;
17832;SDS011;9041;49.718;21.798;2023-08-21T07:00:34;37.15;;;14.77;;
17832;SDS011;9041;49.718;21.798;2023-08-21T07:03:01;24.85;;;15.13;;
17832;SDS011;9041;49.718;21.798;2023-08-21T07:05:32;24.60;;;14.55;;
17832;SDS011;9041;49.718;21.798;2023-08-21T07:08:01;24.30;;;14.68;;
17832;SDS011;9041;49.718;21.798;2023-08-21T07:10:32;23.80;;;14.07;;
17832;SDS011;9041;49.718;21.798;2023-08-21T07:13:02;23.48;;;14.30;;
17832;SDS011;9041;49.718;21.798;2023-08-21T07:15:28;23.38;;;14.90;;
17832;SDS011;9041;49.718;21.798;2023-08-21T07:17:55;32.42;;;14.82;;
17832;SDS011;9041;49.718;21.798;2023-08-21T07:20:24;23.52;;;14.93;;
17832;SDS011;9041;49.718;21.798;2023-08-21T07:22:51;24.88;;;14.90;;
17832;SDS011;9041;49.718;21.798;2023-08-21T07:25:21;18.67;;;13.25;;
17832;SDS011;9041;49.718;21.798;2023-08-21T07:27:50;20.35;;;13.98;;
17832;SDS011;9041;49.718;21.798;2023-08-21T07:30:18;21.63;;;14.80;;
17832;SDS011;9041;49.718;21.798;2023-08-21T07:32:45;25.70;;;14.75;;
17832;SDS011;9041;49.718;21.798;2023-08-21T07:35:12;20.77;;;14.60;;
17832;SDS011;9041;49.718;21.798;2023-08-21T07:37:39;31.77;;;14.88;;
17832;SDS011;9041;49.718;21.798;2023-08-21T07:40:07;19.75;;;14.32;;
17832;SDS011;9041;49.718;21.798;2023-08-21T07:42:35;21.08;;;13.88;;
17832;SDS011;9041;49.718;21.798;2023-08-21T07:45:02;17.00;;;13.05;;
17832;SDS011;9041;49.718;21.798;2023-08-21T07:47:29;18.27;;;13.68;;
17832;SDS011;9041;49.718;21.798;2023-08-21T07:49:58;18.55;;;13.98;;
17832;SDS011;9041;49.718;21.798;2023-08-21T07:52:25;17.55;;;12.98;;
17832;SDS011;9041;49.718;21.798;2023-08-21T07:54:52;21.35;;;14.20;;
17832;SDS011;9041;49.718;21.798;2023-08-21T07:57:19;16.88;;;13.30;;
17832;SDS011;9041;49.718;21.798;2023-08-21T07:59:47;23.75;;;13.05;;
17832;SDS011;9041;49.718;21.798;2023-08-21T08:02:17;17.27;;;13.63;;
17832;SDS011;9041;49.718;21.798;2023-08-21T08:04:43;22.92;;;13.95;;
17832;SDS011;9041;49.718;21.798;2023-08-21T08:07:13;16.75;;;13.30;;
17832;SDS011;9041;49.718;21.798;2023-08-21T08:09:40;22.35;;;13.35;;
17832;SDS011;9041;49.718;21.798;2023-08-21T08:12:06;20.35;;;14.10;;
17832;SDS011;9041;49.718;21.798;2023-08-21T08:14:35;22.60;;;13.93;;
17832;SDS011;9041;49.718;21.798;2023-08-21T08:17:03;21.70;;;15.55;;
17832;SDS011;9041;49.718;21.798;2023-08-21T08:19:30;21.60;;;14.00;;
17832;SDS011;9041;49.718;21.798;2023-08-21T08:21:56;22.55;;;13.60;;
17832;SDS011;9041;49.718;21.798;2023-08-21T08:24:25;21.35;;;14.13;;
17832;SDS011;9041;49.718;21.798;2023-08-21T08:26:52;20.42;;;13.43;;
17832;SDS011;9041;49.718;21.798;2023-08-21T08:29:19;16.98;;;12.75;;
17832;SDS011;9041;49.718;21.798;2023-08-21T08:31:46;15.15;;;12.25;;
17832;SDS011;9041;49.718;21.798;2023-08-21T08:34:14;28.27;;;17.90;;
17832;SDS011;9041;49.718;21.798;2023-08-21T08:36:45;18.77;;;12.77;;
17832;SDS011;9041;49.718;21.798;2023-08-21T08:39:12;18.58;;;12.05;;
17832;SDS011;9041;49.718;21.798;2023-08-21T08:41:43;14.88;;;11.68;;
17832;SDS011;9041;49.718;21.798;2023-08-21T08:44:13;18.33;;;12.13;;
17832;SDS011;9041;49.718;21.798;2023-08-21T08:46:44;15.60;;;10.52;;
17832;SDS011;9041;49.718;21.798;2023-08-21T08:49:11;17.92;;;12.75;;
17832;SDS011;9041;49.718;21.798;2023-08-21T08:51:49;15.13;;;11.80;;
17832;SDS011;9041;49.718;21.798;2023-08-21T08:54:19;14.95;;;12.38;;
17832;SDS011;9041;49.718;21.798;2023-08-21T08:56:46;15.90;;;11.55;;
17832;SDS011;9041;49.718;21.798;2023-08-21T08:59:16;24.35;;;12.63;;
17832;SDS011;9041;49.718;21.798;2023-08-21T09:01:43;14.77;;;11.60;;
17832;SDS011;9041;49.718;21.798;2023-08-21T09:04:10;13.13;;;11.48;;
17832;SDS011;9041;49.718;21.798;2023-08-21T09:06:38;15.30;;;10.60;;
17832;SDS011;9041;49.718;21.798;2023-08-21T09:09:07;13.98;;;11.23;;
17832;SDS011;9041;49.718;21.798;2023-08-21T09:11:35;13.93;;;11.07;;
17832;SDS011;9041;49.718;21.798;2023-08-21T09:14:02;13.38;;;10.38;;
17832;SDS011;9041;49.718;21.798;2023-08-21T09:16:29;14.70;;;10.25;;
17832;SDS011;9041;49.718;21.798;2023-08-21T09:18:56;75.88;;;12.88;;
17832;SDS011;9041;49.718;21.798;2023-08-21T09:21:24;13.00;;;10.60;;
17832;SDS011;9041;49.718;21.798;2023-08-21T09:23:57;11.57;;;9.98;;
17832;SDS011;9041;49.718;21.798;2023-08-21T09:26:29;13.63;;;10.85;;
17832;SDS011;9041;49.718;21.798;2023-08-21T09:28:57;12.85;;;11.15;;
17832;SDS011;9041;49.718;21.798;2023-08-21T09:31:24;15.60;;;10.05;;
17832;SDS011;9041;49.718;21.798;2023-08-21T09:33:58;11.95;;;9.70;;
17832;SDS011;9041;49.718;21.798;2023-08-21T09:36:31;13.15;;;9.43;;
17832;SDS011;9041;49.718;21.798;2023-08-21T09:38:59;11.52;;;9.48;;
17832;SDS011;9041;49.718;21.798;2023-08-21T09:41:26;14.60;;;9.73;;
17832;SDS011;9041;49.718;21.798;2023-08-21T09:43:54;14.35;;;10.52;;
17832;SDS011;9041;49.718;21.798;2023-08-21T09:46:25;11.57;;;9.82;;
17832;SDS011;9041;49.718;21.798;2023-08-21T09:48:53;12.52;;;10.57;;
17832;SDS011;9041;49.718;21.798;2023-08-21T09:51:20;15.13;;;11.05;;
17832;SDS011;9041;49.718;21.798;2023-08-21T09:53:47;13.95;;;10.63;;
17832;SDS011;9041;49.718;21.798;2023-08-21T09:56:32;12.57;;;10.55;;
17832;SDS011;9041;49.718;21.798;2023-08-21T09:58:59;15.75;;;10.52;;
17832;SDS011;9041;49.718;21.798;2023-08-21T10:01:28;13.48;;;10.98;;
17832;SDS011;9041;49.718;21.798;2023-08-21T10:04:04;13.10;;;10.55;;
17832;SDS011;9041;49.718;21.798;2023-08-21T10:06:31;14.55;;;10.95;;
17832;SDS011;9041;49.718;21.798;2023-08-21T10:09:05;13.50;;;10.48;;
17832;SDS011;9041;49.718;21.798;2023-08-21T10:11:34;14.75;;;10.07;;
17832;SDS011;9041;49.718;21.798;2023-08-21T10:14:07;24.15;;;10.00;;
17832;SDS011;9041;49.718;21.798;2023-08-21T10:16:34;13.57;;;8.88;;
17832;SDS011;9041;49.718;21.798;2023-08-21T10:19:02;12.02;;;9.20;;
17832;SDS011;9041;49.718;21.798;2023-08-21T10:21:31;11.43;;;8.60;;
17832;SDS011;9041;49.718;21.798;2023-08-21T10:24:01;12.43;;;10.05;;
17832;SDS011;9041;49.718;21.798;2023-08-21T10:26:27;10.93;;;9.18;;
17832;SDS011;9041;49.718;21.798;2023-08-21T10:29:00;13.70;;;9.27;;
17832;SDS011;9041;49.718;21.798;2023-08-21T10:31:31;14.57;;;9.68;;
17832;SDS011;9041;49.718;21.798;2023-08-21T10:34:03;11.43;;;9.38;;
17832;SDS011;9041;49.718;21.798;2023-08-21T10:36:37;11.32;;;9.30;;
17832;SDS011;9041;49.718;21.798;2023-08-21T10:39:27;15.15;;;9.38;;
17832;SDS011;9041;49.718;21.798;2023-08-21T10:41:58;12.13;;;9.70;;
17832;SDS011;9041;49.718;21.798;2023-08-21T10:44:37;11.32;;;9.02;;
17832;SDS011;9041;49.718;21.798;2023-08-21T10:47:14;11.15;;;9.43;;
17832;SDS011;9041;49.718;21.798;2023-08-21T10:49:42;14.80;;;9.95;;
17832;SDS011;9041;49.718;21.798;2023-08-21T10:52:09;11.93;;;8.77;;
17832;SDS011;9041;49.718;21.798;2023-08-21T10:54:43;10.18;;;8.82;;
17832;SDS011;9041;49.718;21.798;2023-08-21T10:57:11;9.98;;;8.60;;
17832;SDS011;9041;49.718;21.798;2023-08-21T10:59:41;9.57;;;8.25;;
17832;SDS011;9041;49.718;21.798;2023-08-21T11:02:15;13.32;;;9.35;;
17832;SDS011;9041;49.718;21.798;2023-08-21T11:04:44;11.88;;;9.27;;
17832;SDS011;9041;49.718;21.798;2023-08-21T11:07:11;13.88;;;10.13;;
17832;SDS011;9041;49.718;21.798;2023-08-21T11:09:42;9.95;;;8.95;;
17832;SDS011;9041;49.718;21.798;2023-08-21T11:12:09;10.95;;;9.00;;
17832;SDS011;9041;49.718;21.798;2023-08-21T11:14:37;10.75;;;9.50;;
17832;SDS011;9041;49.718;21.798;2023-08-21T11:17:11;10.73;;;8.60;;
17832;SDS011;9041;49.718;21.798;2023-08-21T11:19:39;16.17;;;9.73;;
17832;SDS011;9041;49.718;21.798;2023-08-21T11:22:08;14.30;;;9.60;;
17832;SDS011;9041;49.718;21.798;2023-08-21T11:24:40;13.48;;;10.35;;
17832;SDS011;9041;49.718;21.798;2023-08-21T11:27:11;14.60;;;10.00;;
17832;SDS011;9041;49.718;21.798;2023-08-21T11:29:39;11.15;;;9.68;;
17832;SDS011;9041;49.718;21.798;2023-08-21T11:32:11;13.52;;;9.88;;
17832;SDS011;9041;49.718;21.798;2023-08-21T11:34:39;12.38;;;9.32;;
17832;SDS011;9041;49.718;21.798;2023-08-21T11:37:06;12.57;;;10.00;;
17832;SDS011;9041;49.718;21.798;2023-08-21T11:39:40;11.63;;;10.23;;
17832;SDS011;9041;49.718;21.798;2023-08-21T11:42:08;15.48;;;9.30;;
17832;SDS011;9041;49.718;21.798;2023-08-21T11:44:40;12.98;;;9.75;;
17832;SDS011;9041;49.718;21.798;2023-08-21T11:47:14;14.75;;;10.52;;
17832;SDS011;9041;49.718;21.798;2023-08-21T11:49:41;14.02;;;10.75;;
17832;SDS011;9041;49.718;21.798;2023-08-21T11:52:09;15.73;;;10.05;;
17832;SDS011;9041;49.718;21.798;2023-08-21T11:54:38;16.48;;;10.60;;
17832;SDS011;9041;49.718;21.798;2023-08-21T11:57:11;14.48;;;11.13;;
17832;SDS011;9041;49.718;21.798;2023-08-21T11:59:41;16.42;;;11.68;;
17832;SDS011;9041;49.718;21.798;2023-08-21T12:02:18;16.63;;;11.68;;
17832;SDS011;9041;49.718;21.798;2023-08-21T12:04:45;16.35;;;11.90;;
17832;SDS011;9041;49.718;21.798;2023-08-21T12:07:18;15.38;;;11.60;;
17832;SDS011;9041;49.718;21.798;2023-08-21T12:09:47;17.00;;;12.40;;
17832;SDS011;9041;49.718;21.798;2023-08-21T12:12:18;14.75;;;11.70;;
17832;SDS011;9041;49.718;21.798;2023-08-21T12:14:45;17.65;;;12.10;;
17832;SDS011;9041;49.718;21.798;2023-08-21T12:17:13;17.23;;;12.30;;
17832;SDS011;9041;49.718;21.798;2023-08-21T12:19:42;15.27;;;12.75;;
17832;SDS011;9041;49.718;21.798;2023-08-21T12:22:08;15.98;;;11.93;;
17832;SDS011;9041;49.718;21.798;2023-08-21T12:24:37;21.95;;;13.30;;
17832;SDS011;9041;49.718;21.798;2023-08-21T12:27:08;18.45;;;12.25;;
17832;SDS011;9041;49.718;21.798;2023-08-21T12:29:35;18.85;;;12.43;;
17832;SDS011;9041;49.718;21.798;2023-08-21T12:32:04;16.08;;;12.07;;
17832;SDS011;9041;49.718;21.798;2023-08-21T12:34:33;19.13;;;12.63;;
17832;SDS011;9041;49.718;21.798;2023-08-21T12:37:04;15.00;;;12.43;;
17832;SDS011;9041;49.718;21.798;2023-08-21T12:39:33;17.70;;;12.90;;
17832;SDS011;9041;49.718;21.798;2023-08-21T12:41:59;18.45;;;13.07;;
17832;SDS011;9041;49.718;21.798;2023-08-21T12:44:27;17.85;;;12.85;;
17832;SDS011;9041;49.718;21.798;2023-08-21T12:47:00;20.77;;;13.70;;
17832;SDS011;9041;49.718;21.798;2023-08-21T12:49:33;17.48;;;12.50;;
17832;SDS011;9041;49.718;21.798;2023-08-21T12:52:00;18.95;;;14.02;;
17832;SDS011;9041;49.718;21.798;2023-08-21T12:54:28;16.40;;;13.30;;
17832;SDS011;9041;49.718;21.798;2023-08-21T12:56:58;20.50;;;14.18;;
17832;SDS011;9041;49.718;21.798;2023-08-21T12:59:27;16.70;;;13.18;;
17832;SDS011;9041;49.718;21.798;2023-08-21T13:01:55;19.10;;;14.25;;
17832;SDS011;9041;49.718;21.798;2023-08-21T13:04:27;16.95;;;13.65;;
17832;SDS011;9041;49.718;21.798;2023-08-21T13:06:54;18.77;;;13.43;;
17832;SDS011;9041;49.718;21.798;2023-08-21T13:09:20;20.25;;;13.10;;
17832;SDS011;9041;49.718;21.798;2023-08-21T13:11:50;16.10;;;13.35;;
17832;SDS011;9041;49.718;21.798;2023-08-21T13:14:17;18.73;;;13.02;;
17832;SDS011;9041;49.718;21.798;2023-08-21T13:16:44;14.75;;;12.38;;
17832;SDS011;9041;49.718;21.798;2023-08-21T13:19:11;17.88;;;13.18;;
17832;SDS011;9041;49.718;21.798;2023-08-21T13:21:37;15.43;;;12.23;;
17832;SDS011;9041;49.718;21.798;2023-08-21T13:24:04;22.30;;;12.40;;
17832;SDS011;9041;49.718;21.798;2023-08-21T13:26:30;18.52;;;10.98;;
17832;SDS011;9041;49.718;21.798;2023-08-21T13:29:00;14.68;;;10.80;;
17832;SDS011;9041;49.718;21.798;2023-08-21T13:31:27;14.02;;;10.20;;
17832;SDS011;9041;49.718;21.798;2023-08-21T13:33:56;15.90;;;11.52;;
17832;SDS011;9041;49.718;21.798;2023-08-21T13:36:26;14.95;;;12.07;;
17832;SDS011;9041;49.718;21.798;2023-08-21T13:38:53;17.65;;;12.18;;
17832;SDS011;9041;49.718;21.798;2023-08-21T13:41:20;15.43;;;11.55;;
17832;SDS011;9041;49.718;21.798;2023-08-21T13:43:48;17.95;;;13.10;;
17832;SDS011;9041;49.718;21.798;2023-08-21T13:46:16;16.25;;;12.60;;
17832;SDS011;9041;49.718;21.798;2023-08-21T13:48:43;15.75;;;12.15;;
17832;SDS011;9041;49.718;21.798;2023-08-21T13:51:11;17.55;;;12.52;;
17832;SDS011;9041;49.718;21.798;2023-08-21T13:53:41;19.25;;;12.90;;
17832;SDS011;9041;49.718;21.798;2023-08-21T13:56:07;16.83;;;12.45;;
17832;SDS011;9041;49.718;21.798;2023-08-21T13:58:34;21.92;;;12.02;;
17832;SDS011;9041;49.718;21.798;2023-08-21T14:01:03;17.27;;;12.75;;
17832;SDS011;9041;49.718;21.798;2023-08-21T14:03:33;15.25;;;12.98;;
17832;SDS011;9041;49.718;21.798;2023-08-21T14:06:05;18.90;;;12.35;;
17832;SDS011;9041;49.718;21.798;2023-08-21T14:08:35;16.48;;;12.70;;
17832;SDS011;9041;49.718;21.798;2023-08-21T14:11:02;19.83;;;13.10;;
17832;SDS011;9041;49.718;21.798;2023-08-21T14:13:28;23.90;;;12.63;;
17832;SDS011;9041;49.718;21.798;2023-08-21T14:16:01;17.83;;;13.95;;
17832;SDS011;9041;49.718;21.798;2023-08-21T14:18:28;21.08;;;13.82;;
17832;SDS011;9041;49.718;21.798;2023-08-21T14:20:56;21.08;;;12.75;;
17832;SDS011;9041;49.718;21.798;2023-08-21T14:23:23;19.92;;;12.23;;
17832;SDS011;9041;49.718;21.798;2023-08-21T14:25:49;17.80;;;12.48;;
17832;SDS011;9041;49.718;21.798;2023-08-21T14:28:19;15.60;;;12.25;;